Details From SBGO - Santo Genoveva
To SBAN - BASE AEREA
Flight Number -
Tags generated
Created
Modified
Stats Distance 29 nm / 53 km
Max Altitude 100 ft / 30 m
Waypoints 3
Social Downloads 2
Likes 0
Share VATSIM

Download

Looking for another format? Having issues loading an existing format? Contact us
Advertisement - Login to hide

Notes

Basic altitude profile: - Ascent Rate: 2500ft/min - Ascent Speed: 250kts - Cruise Altitude: 35000ft - Cruise Speed: 420kts - Descent Rate: 1500ft/min - Descent Speed: 250kts Options: - Use NATs: yes - Use PACOTS: yes - Use low airways: yes - Use high airways: yes

Route

SBGO GOI SBAN

ID Type Via Altitude Latitude Longitude Leg Dist Tot Dist Heading (true) Name
O SBGO APT - 0 ft / 0 m -16.63203˚ -49.22069˚ - 0 nm - Santo Genoveva
GOI VOR - 100 ft / 30 m -16.63243˚ -49.21536˚ 0 nm 0 nm 94° / 94° GOIANIA VOR-DME
O SBAN APT - 0 ft / 0 m -16.22915˚ -48.96427˚ 28 nm 28 nm 31° / 31° BASE AEREA

Altitude Profile

Advertisement - Login to hide

SBGO

Details ICAO SBGO (GYN)
Name Santo Genoveva
Region Brazil
Timezone America/Sao_Paulo (UTC-3.0)
Stats Elevation 2,450 ft / 747 m (AMSL)
Location -16.632032° -49.220686°
Runways 1
Magnetic Variation 21.039° W

METAR

SBGO 230900Z 10002KT CAVOK 11/09 Q1020

Decode

TAF

TAF SBGO 230400Z 2306/2406 13005KT CAVOK TN12/2309Z TX29/2316Z BECMG 2320/2322 09005KT BECMG 2400/2402 13005KT RMK PDB

Decode

Departure Runways

ID Width Length Bearing (true) Bearing (mag) Surface Threshold Offset Overrun Length
14 148 ft / 45 m 8,208 ft / 2,502 m 120.42° 141.46° Asphalt 0 ft / 0 m 0 ft / 0 m
32 148 ft / 45 m 8,208 ft / 2,502 m 300.41° 321.45° Asphalt 980 ft / 299 m 0 ft / 0 m

SBAN

Details ICAO SBAN
Name BASE AEREA
Region Brazil
Timezone America/Sao_Paulo (UTC-3.0)
Stats Elevation 3,728 ft / 1,136 m (AMSL)
Location -16.229153° -48.964267°
Runways 2
Magnetic Variation 21.164° W

METAR

SBAN 230900Z 15008KT CAVOK 15/06 Q1022

Decode

TAF

TAF TAF SBAN 230400Z 2306/2318 11007KT CAVOK TN14/2309Z TX26/2316Z BECMG 2315/2317 18007KT 8000 NSC RMK PDB

Decode

Destination Runways

ID Width Length Bearing (true) Bearing (mag) Surface Threshold Offset Overrun Length
06L 148 ft / 45 m 10,862 ft / 3,311 m 38.85° 60.01° Asphalt 0 ft / 0 m 1,151 ft / 351 m
06R 75 ft / 23 m 7,469 ft / 2,277 m 38.80° 59.96° Asphalt 0 ft / 0 m 0 ft / 0 m
24L 75 ft / 23 m 7,469 ft / 2,277 m 218.79° 239.95° Asphalt 0 ft / 0 m 0 ft / 0 m
24R 148 ft / 45 m 10,862 ft / 3,311 m 218.84° 240.00° Asphalt 0 ft / 0 m 1,142 ft / 348 m